Saison 2023 · Manche 22

Abu Dhabi Grand Prix

2023-11-26 · Yas Marina Circuit · UAE · Abu Dhabi Grand Prix · 58Lap · 306.183km
Red Bull 1:27:02.624
Victoire par équipe 38pt P1 · P4
Ferrari +17.993
Mercedes +20.328
Meilleur tour
1:26.993 · L45
Abandon
0
tous classés · 20 partants
Météo
27°/33°
moy. air/piste · sec · humidité 51%
Voiture de sécurité
0
Déploiements SC/VSC
Utilisation des pneus Direction de course
Storylines · This Grand Prix & circuit
Plus de victoires à ce GP
Max Verstappen actif 5 victoires
Lewis Hamilton actif 5 victoires
Conversion pole-victoire 12/17 70.6%
Most SC/VSC · all-time P31
Arrivée la plus serrée · all-time P37
Circuit Info
Yas Marina Circuit Abu Dhabi, UAE
58Lap 306.183km 18 courses held (2009–) Record du tour 1:25.637 · Kevin Magnussen (2024)
Records Watch · Active drivers ranked at this Grand Prix
P1 Lewis Hamilton 5 victoires · GP #1
P1 Max Verstappen 5 victoires · GP #1
P4 Valtteri Bottas 1 victoires · → Sebastian Vettel -2
P1 Lewis Hamilton 5 · GP #1
P1 Max Verstappen 5 · GP #1
P1 Lewis Hamilton 17 départs · GP #1
P2 Fernando Alonso 15 départs · → Lewis Hamilton -2
P3 Sergio Pérez 14 départs · → Fernando Alonso -1
Course Trace · position by lap
départ arrêté SG 1 6 11 16 21 26 31 36 41 46 51 56 FIN Verstappen · arrêt aux stands L16 Verstappen · arrêt aux stands L43 Verstappen VER Verstappen VER Leclerc · arrêt aux stands L17 Leclerc · arrêt aux stands L35 Leclerc LEC Leclerc LEC Russell · arrêt aux stands L14 Russell · arrêt aux stands L34 Russell RUS Russell RUS Pérez · arrêt aux stands L17 Pérez · arrêt aux stands L42 Pérez · +5s ajouté après la course Pérez PER Pérez PER Norris · arrêt aux stands L14 Norris · arrêt aux stands L33 Norris NOR Norris NOR Piastri · arrêt aux stands L13 Piastri · arrêt aux stands L36 Piastri PIA Piastri PIA Alonso · arrêt aux stands L12 Alonso · arrêt aux stands L36 Alonso ALO Alonso ALO Tsunoda · arrêt aux stands L22 Tsunoda TSU Tsunoda TSU Hamilton · arrêt aux stands L15 Hamilton · arrêt aux stands L35 Hamilton HAM Hamilton HAM Stroll · arrêt aux stands L22 Stroll · arrêt aux stands L42 Stroll STR Stroll STR Ricciardo · arrêt aux stands L7 Ricciardo · arrêt aux stands L31 Ricciardo RIC Ricciardo RIC Ocon · arrêt aux stands L15 Ocon OCO Ocon OCO Gasly · arrêt aux stands L17 Gasly · arrêt aux stands L32 Gasly GAS Gasly GAS Albon · arrêt aux stands L16 Albon · arrêt aux stands L43 Albon ALB Albon ALB Hülkenberg · arrêt aux stands L13 Hülkenberg · arrêt aux stands L33 Hülkenberg HUL Hülkenberg HUL Sargeant · arrêt aux stands L15 Sargeant · arrêt aux stands L41 Sargeant SAR Sargeant SAR Zhou · arrêt aux stands L13 Zhou · arrêt aux stands L37 Zhou ZHO Zhou ZHO Sainz · arrêt aux stands L23 Sainz · arrêt aux stands L56 Sainz · arrêté L57 · classé P18 Sainz SAI Sainz SAI Bottas · arrêt aux stands L29 Bottas BOT Bottas BOT Magnussen · arrêt aux stands L5 Magnussen · arrêt aux stands L22 Magnussen MAG Magnussen MAG
arrêt aux stands pénalité purgée aux stands SG Grille de départ FIN classement officiel pénalité ajoutée après la course voiture arrêtée position à chaque tour (depuis 1996)
PosPiloteTeamGrilleTourTemps / StatutPoints
1 1 Max Verstappen FL Red Bull 1 58 1:27:02.624 26
2 16 Charles Leclerc Ferrari 2 58 +17.993 18
3 63 George Russell Mercedes 4 58 +20.328 15
4 11 Sergio Pérez Red Bull 9 58 +21.453 12
5 4 Lando Norris McLaren 5 58 +24.284 10
6 81 Oscar Piastri McLaren 3 58 +31.487 8
7 14 Fernando Alonso Aston Martin 7 58 +39.512 6
8 22 Yuki Tsunoda AlphaTauri 6 58 +43.088 4
9 44 Lewis Hamilton Mercedes 11 58 +44.424 2
10 18 Lance Stroll Aston Martin 13 58 +55.632 1
11 3 Daniel Ricciardo AlphaTauri 15 58 +56.229
12 31 Esteban Ocon Alpine F1 Team 12 58 +1:06.373
13 10 Pierre Gasly Alpine F1 Team 10 58 +1:10.360
14 23 Alexander Albon Williams 14 58 +1:13.184
15 27 Nico Hülkenberg Haas F1 Team 8 58 +1:23.696
16 2 Logan Sargeant Williams 20 58 +1:27.791
17 24 Guanyu Zhou Alfa Romeo 19 58 +1:29.422
18 55 Carlos Sainz Ferrari 16 57
19 77 Valtteri Bottas Alfa Romeo 18 57 +12.411
20 20 Kevin Magnussen Haas F1 Team 17 57 +14.876
PosPiloteTeamQ1Q2Q3Écart à la pole
1 1 Max Verstappen Red Bull 1:24.160 1:23.740 1:23.445 POLE Q3
2 16 Charles Leclerc Ferrari 1:24.459 1:23.969 1:23.584 +0.139 Q3
3 81 Oscar Piastri McLaren 1:24.487 1:24.278 1:23.782 +0.337 Q3
4 63 George Russell Mercedes 1:24.337 1:24.013 1:23.788 +0.343 Q3
5 4 Lando Norris McLaren 1:24.368 1:23.920 1:23.816 +0.371 Q3
6 22 Yuki Tsunoda AlphaTauri 1:24.286 1:24.207 1:23.968 +0.523 Q3
7 14 Fernando Alonso Aston Martin 1:24.501 1:24.131 1:24.084 +0.639 Q3
8 27 Nico Hülkenberg Haas F1 Team 1:24.425 1:24.213 1:24.108 +0.663 Q3
9 11 Sergio Pérez Red Bull 1:24.209 1:24.116 1:24.171 +0.671 Q2
10 10 Pierre Gasly Alpine F1 Team 1:24.600 1:24.078 1:24.548 +0.633 Q2
11 44 Lewis Hamilton Mercedes 1:24.437 1:24.359 +0.914 Q2
12 31 Esteban Ocon Alpine F1 Team 1:24.565 1:24.391 +0.946 Q2
13 18 Lance Stroll Aston Martin 1:24.405 1:24.422 +0.960 Q1
14 23 Alexander Albon Williams 1:24.298 1:24.439 +0.853 Q1
15 3 Daniel Ricciardo AlphaTauri 1:24.461 1:24.442 +0.997 Q2
16 55 Carlos Sainz Ferrari 1:24.738 +1.293 Q1
17 20 Kevin Magnussen Haas F1 Team 1:24.764 +1.319 Q1
18 77 Valtteri Bottas Alfa Romeo 1:24.788 +1.343 Q1
19 24 Guanyu Zhou Alfa Romeo 1:25.159 +1.714 Q1
20 2 Logan Sargeant Williams
Grille de départ
Officielle
Final grid as classé, including any depuis la voie des stands départs. Source: Jolpica-F1. The arrow compares the grid slot with the les qualifications classification; hover a drop to see the stewards document behind it.
Aucune donnée pour cette séance.
PosPiloteMeilleur tourÉcartTours
1 63 George Russell 1:26.072 26
2 3 Daniel Ricciardo 1:26.433 +0.361 26
3 77 Valtteri Bottas 1:26.453 +0.381 21
4 18 Lance Stroll 1:26.631 +0.559 21
5 81 Oscar Piastri 1:26.665 +0.593 25
6 55 Carlos Sainz 1:26.676 +0.604 24
7 10 Pierre Gasly 1:26.720 +0.648 26
8 22 Yuki Tsunoda 1:26.725 +0.653 27
9 2 Logan Sargeant 1:26.742 +0.670 27
10 7 Jack Doohan 1:26.865 +0.793 23
11 6 Isack Hadjar 1:27.244 +1.172 20
12 20 Kevin Magnussen 1:27.462 +1.390 26
13 87 Oliver Bearman 1:27.569 +1.497 24
Classified by best lap · source OpenF1 (2023+)
PosPiloteMeilleur tourÉcartTours
1 16 Charles Leclerc 1:24.809 16
2 4 Lando Norris 1:24.852 +0.043 18
3 1 Max Verstappen 1:24.982 +0.173 17
4 77 Valtteri Bottas 1:25.024 +0.215 16
5 11 Sergio Pérez 1:25.112 +0.303 17
6 63 George Russell 1:25.122 +0.313 17
7 24 Guanyu Zhou 1:25.223 +0.414 18
8 44 Lewis Hamilton 1:25.315 +0.506 16
9 10 Pierre Gasly 1:25.321 +0.512 15
10 81 Oscar Piastri 1:25.361 +0.552 18
11 14 Fernando Alonso 1:25.397 +0.588 17
12 3 Daniel Ricciardo 1:25.467 +0.658 16
13 18 Lance Stroll 1:25.492 +0.683 17
14 31 Esteban Ocon 1:25.566 +0.757 17
15 22 Yuki Tsunoda 1:25.669 +0.860 17
16 23 Alexander Albon 1:26.081 +1.272 20
17 20 Kevin Magnussen 1:26.413 +1.604 18
18 2 Logan Sargeant 1:26.659 +1.850 17
19 55 Carlos Sainz 1:26.707 +1.898 4
20 27 Nico Hülkenberg 1:27.147 +2.338 7
Classified by best lap · source OpenF1 (2023+)
PosPiloteMeilleur tourÉcartTours
1 63 George Russell 1:24.418 14
2 4 Lando Norris 1:24.513 +0.095 16
3 81 Oscar Piastri 1:24.810 +0.392 16
4 23 Alexander Albon 1:24.929 +0.511 17
5 16 Charles Leclerc 1:25.099 +0.681 27
6 1 Max Verstappen 1:25.153 +0.735 19
7 31 Esteban Ocon 1:25.194 +0.776 18
8 2 Logan Sargeant 1:25.205 +0.787 17
9 22 Yuki Tsunoda 1:25.222 +0.804 15
10 24 Guanyu Zhou 1:25.258 +0.840 23
11 11 Sergio Pérez 1:25.259 +0.841 21
12 44 Lewis Hamilton 1:25.292 +0.874 26
13 10 Pierre Gasly 1:25.303 +0.885 18
14 14 Fernando Alonso 1:25.343 +0.925 25
15 18 Lance Stroll 1:25.405 +0.987 24
16 77 Valtteri Bottas 1:25.420 +1.002 16
17 27 Nico Hülkenberg 1:25.584 +1.166 22
18 3 Daniel Ricciardo 1:25.597 +1.179 15
19 20 Kevin Magnussen 1:25.652 +1.234 20
20 55 Carlos Sainz 1:25.713 +1.295 29
Classified by best lap · source OpenF1 (2023+)
#PiloteTemps au tourTour
1 1 Max Verstappen 1:26.993 L45
2 11 Sergio Pérez 1:27.493 L44
3 1 Max Verstappen 1:27.513 L54
4 1 Max Verstappen 1:27.683 L53
5 1 Max Verstappen 1:27.727 L56
6 11 Sergio Pérez 1:27.758 L50
7 11 Sergio Pérez 1:27.837 L45
8 23 Alexander Albon 1:27.845 L45
9 1 Max Verstappen 1:27.849 L51
10 1 Max Verstappen 1:27.851 L52
Top 10 la plus rapide race tours — #1 is the la plus rapide lap of la course(FL).
Arrêts aux stands · comparaison
21s 22s 23s 24s médiane 21.9s Oscar Piastri · L36 · 21.156s Carlos Sainz · L23 · 21.229s Charles Leclerc · L35 · 21.246s Sergio Pérez · L42 · 21.274s Max Verstappen · L43 · 21.275s Lando Norris · L33 · 21.432s Sergio Pérez · L17 · 21.446s Yuki Tsunoda · L22 · 21.486s Carlos Sainz · L56 · 21.564s George Russell · L14 · 21.650s Max Verstappen · L16 · 21.662s Lance Stroll · L42 · 21.667s Daniel Ricciardo · L7 · 21.692s Oscar Piastri · L13 · 21.697s Daniel Ricciardo · L31 · 21.740s Fernando Alonso · L36 · 21.841s Nico Hülkenberg · L13 · 21.861s Lance Stroll · L22 · 21.866s Logan Sargeant · L41 · 21.880s Charles Leclerc · L17 · 21.919s Alexander Albon · L43 · 21.919s Lewis Hamilton · L35 · 22.045s Nico Hülkenberg · L33 · 22.081s George Russell · L34 · 22.084s Logan Sargeant · L15 · 22.124s Esteban Ocon · L15 · 22.160s Kevin Magnussen · L22 · 22.163s Alexander Albon · L16 · 22.170s Lewis Hamilton · L15 · 22.195s Guanyu Zhou · L37 · 22.345s Fernando Alonso · L12 · 22.462s Valtteri Bottas · L29 · 22.665s Kevin Magnussen · L5 · 22.764s Guanyu Zhou · L13 · 22.867s Pierre Gasly · L17 · 23.091s Pierre Gasly · L32 · 23.478s Lando Norris · L14 · 24.061s
la plus rapide 21.156s Oscar Piastri la plus lente 24.061s Lando Norris temps de passage dans la voie des stands — un point par arrêt
PiloteArrêtTourTempsPassage dans la voie des stands
20 Kevin Magnussen 1 5 17:11:16 22.764s
3 Daniel Ricciardo 1 7 17:14:15 21.692s
14 Fernando Alonso 1 12 17:21:44 22.462s
24 Guanyu Zhou 1 13 17:23:27 22.867s
81 Oscar Piastri 1 13 17:23:13 21.697s
27 Nico Hülkenberg 1 13 17:23:25 21.861s
4 Lando Norris 1 14 17:24:40 24.061s
63 George Russell 1 14 17:24:42 21.650s
31 Esteban Ocon 1 15 17:26:22 22.160s
44 Lewis Hamilton 1 15 17:26:21 22.195s
2 Logan Sargeant 1 15 17:26:35 22.124s
1 Max Verstappen 1 16 17:27:36 21.662s
23 Alexander Albon 1 16 17:28:04 22.170s
11 Sergio Pérez 1 17 17:29:21 21.446s
10 Pierre Gasly 1 17 17:29:26 23.091s
16 Charles Leclerc 1 17 17:29:09 21.919s
18 Lance Stroll 1 22 17:36:59 21.866s
22 Yuki Tsunoda 1 22 17:36:54 21.486s
20 Kevin Magnussen 2 22 17:37:30 22.163s
55 Carlos Sainz 1 23 17:38:36 21.229s
77 Valtteri Bottas 1 29 17:48:01 22.665s
3 Daniel Ricciardo 2 31 17:50:51 21.740s
10 Pierre Gasly 2 32 17:52:26 23.478s
4 Lando Norris 2 33 17:53:31 21.432s
27 Nico Hülkenberg 2 33 17:54:04 22.081s
63 George Russell 2 34 17:54:57 22.084s
16 Charles Leclerc 2 35 17:56:25 21.246s
44 Lewis Hamilton 2 35 17:56:42 22.045s
81 Oscar Piastri 2 36 17:58:08 21.156s
14 Fernando Alonso 2 36 17:58:11 21.841s
24 Guanyu Zhou 2 37 18:00:12 22.345s
2 Logan Sargeant 2 41 18:06:20 21.880s
11 Sergio Pérez 2 42 18:06:56 21.274s
18 Lance Stroll 2 42 18:07:20 21.667s
1 Max Verstappen 2 43 18:08:09 21.275s
23 Alexander Albon 2 43 18:09:09 21.919s
55 Carlos Sainz 2 56 18:28:24 21.564s
arrêts
SG 10 20 30 40 50 L58
1
2
M15
H27
H16
16
2
M16
H18
H24
63
2
M13
H20
H25
11
2
M16
H25
H17
4
2
M13
H19
H26
81
2
M12
H23
H23
14
2
M11
H24·+1
H23·+1
22
1
M21
H37
44
2
M14
H20
H24
18
2
H21·+1
H20·+1
M17
3
2
M6
H24
H28
31
1
M14
H44
10
2
M16
H15
H27
23
2
M15·+1
H27
H16
27
2
M12
H20
H26
2
2
M14·+1
H26
H18
24
2
M12
H24
M22
55
2
H22
H33
H2
77
1
H28
M29
20
2
M4
H17
H36
S Soft M Medium H Hard I Intermediate W Wet SC·VSC arrêt aux stands pénalité purgée aux stands
Course · largeur de barre = tours sur ce train, ·+N = monté usagé avec N tours au compteur · source OpenF1 (2023+)
Composés désignés pour ce Grand Prix
C3 Dur C4 Medium C5 Tendre
Pirelli désigne trois de ses composés slicks pour chaque épreuve ; plus le numéro C est élevé, plus le pneu est tendre. Document FIA ↗
Plus de places gagnées en piste
11
+21
P9→P4
14
+20
P7→P7
18
+19
P13→P10
3
+19
P15→P11
55
+19
P16→P18
81
+17
P3→P6
63
+16
P4→P3
4
+16
P5→P5
Plus de places perdues
Oscar Piastri −20 Fernando Alonso −20 Carlos Sainz −20
Course · Somme des places gagnées en piste tour par tour — tour de départ et tours aux stands du pilote exclus. Données de tours de course depuis 1996.
PiloteTypeTourPurgéeInfligéeMotif
44 Lewis Hamilton No further action Car 44 collided with Car 10 at Turn 6 after Car 10 locked its brakes. (No further action.) Document FIA ↗
Car 44 collided with Car 10 at Turn 6 after Car 10 locked its brakes. (No further action.) Document FIA ↗
11 Sergio Pérez Time penalty 51 Après la course +5s · 2pt Car 11 collided with Car 4 at turn 6. (5 second time penalty. 2 penalty points (total of 7 for the 12 month period).) Document FIA ↗
Tour 51 · Purgée Après la course · +5s · 2pt Car 11 collided with Car 4 at turn 6. (5 second time penalty. 2 penalty points (total of 7 for the 12 month period).) Document FIA ↗
11 Sergio Pérez Black-and-white flag warning Statements made over team radio. (Formal warning.) Document FIA ↗
Statements made over team radio. (Formal warning.) Document FIA ↗
23 Alexander Albon Black-and-white flag warning 38 TRACK LIMITS
Tour 38 TRACK LIMITS
Tour = tour où la pénalité a été infligée · Purgée = tour où elle a été purgée aux stands (vide : ajoutée au temps de course)
Time, drive-through and stop-go penalties come from race control messages (OpenF1, 2023+). Grille penalties never appear there — the stewards publish them as documents after the session — so they are worked back from the starting grid against the les qualifications classification, which gives places actually lost rather than the figure written in the decision.
PiloteTypeTourPurgéeInfligéeMotif
81 Oscar Piastri No further action Car 81 appeared to impede Car 10 in turn 4. (No further action.) Document FIA ↗
Car 81 appeared to impede Car 10 in turn 4. (No further action.) Document FIA ↗
Tour = tour où la pénalité a été infligée · Purgée = tour où elle a été purgée aux stands (vide : ajoutée au temps de course)
Time, drive-through and stop-go penalties come from race control messages (OpenF1, 2023+). Grille penalties never appear there — the stewards publish them as documents after the session — so they are worked back from the starting grid against the les qualifications classification, which gives places actually lost rather than the figure written in the decision.
PiloteTypeTourPurgéeInfligéeMotif
18 Lance Stroll Fine €5,000 Driving unnecessarily slowly between Turns 15 and 16. (The competitor (Aston Martin Aramco Cognizant F1 Team) is fined €5,000.) Document FIA ↗
€5,000 Driving unnecessarily slowly between Turns 15 and 16. (The competitor (Aston Martin Aramco Cognizant F1 Team) is fined €5,000.) Document FIA ↗
2 Logan Sargeant Réprimande €5,000 Erratic driving between Turns 15 and 16. (Réprimande (Driving). This is the driver’s 2nd reprimand of the season. The competitor (Williams Raci) Document FIA ↗
€5,000 Erratic driving between Turns 15 and 16. (Réprimande (Driving). This is the driver’s 2nd reprimand of the season. The competitor (Williams Raci) Document FIA ↗
Tour = tour où la pénalité a été infligée · Purgée = tour où elle a été purgée aux stands (vide : ajoutée au temps de course)
Time, drive-through and stop-go penalties come from race control messages (OpenF1, 2023+). Grille penalties never appear there — the stewards publish them as documents after the session — so they are worked back from the starting grid against the les qualifications classification, which gives places actually lost rather than the figure written in the decision.
DocTitreObjetPublished(CET)
Event Notes - Pirelli Preview ↗ 2023-11-22 10:56
2023-11-22 10:56 CET
Decision - Stewards Panel ↗ 2023-11-23 08:26
2023-11-23 08:26 CET
Event Notes - Circuit Map, Pit Lane Drawing and Red Zone ↗ 2023-11-23 08:36
2023-11-23 08:36 CET
Course Director's Event Notes ↗ 2023-11-23 08:45
2023-11-23 08:45 CET
Summons - Mercedes - Team Principal ↗ 2023-11-23 13:32
2023-11-23 13:32 CET
Summons - Ferrari - Team Principal ↗ 2023-11-23 13:32
2023-11-23 13:32 CET
Car Display Procedure ↗ 2023-11-23 14:31
2023-11-23 14:31 CET
Infringement - Ferrari - Team Principal (Updated) ↗ 2023-11-23 15:07
2023-11-23 15:07 CET
Infringement - Mercedes - Team Principal (Updated) ↗ 2023-11-23 15:08
2023-11-23 15:08 CET
PU elements utilisés per driver up to now ↗ 2023-11-24 06:34
2023-11-24 06:34 CET
RNCs utilisés per driver up to now ↗ 2023-11-24 06:35
2023-11-24 06:35 CET
Self scrutineering ↗ 2023-11-24 07:24
2023-11-24 07:24 CET
Entry List ↗ 2023-11-24 07:37
2023-11-24 07:37 CET
Course Director's Event Notes V2 ↗ 2023-11-24 08:50
2023-11-24 08:50 CET
Summons - Car 18 - Alleged driving unnecessarily slowly ↗ 18 Lance Stroll 2023-11-24 11:51
18 Lance Stroll 2023-11-24 11:51 CET
P1 Classification ↗ 2023-11-24 11:51
2023-11-24 11:51 CET
Hearings Postponed ↗ 2023-11-24 11:51
2023-11-24 11:51 CET
Summons - Car 42 - Alleged driving unnecessarily slowly by Car 18 ↗ Frederik Vesti #42 2023-11-24 11:52
Frederik Vesti #42 2023-11-24 11:52 CET
Summons - Car 61 - Alleged driving erratically by car 2 ↗ Jack Doohan #61 2023-11-24 11:57
Jack Doohan #61 2023-11-24 11:57 CET
Summons - Car 2 - Alleged driving erratically ↗ 2 Logan Sargeant 2023-11-24 13:51
2 Logan Sargeant 2023-11-24 13:51 CET
Infringement - Car 2 - Alleged driving erratically ↗ 2 Logan Sargeant 2023-11-24 14:00
2 Logan Sargeant 2023-11-24 14:00 CET
Infringement - Car 18 - Alleged driving unnecessarily slowly ↗ 18 Lance Stroll 2023-11-24 14:01
18 Lance Stroll 2023-11-24 14:01 CET
RNC utilisés outside allocation ↗ 2023-11-24 15:26
2023-11-24 15:26 CET
P2 Classification ↗ 2023-11-24 15:27
2023-11-24 15:27 CET
Course Director's Note - SC2-SC1 Time ↗ 2023-11-24 16:15
2023-11-24 16:15 CET
P1 and P2 scrutineering ↗ 2023-11-24 16:37
2023-11-24 16:37 CET
Course Director's Event Notes V3 ↗ 2023-11-25 08:35
2023-11-25 08:35 CET
Post-Qualifications Procedure ↗ 2023-11-25 08:41
2023-11-25 08:41 CET
Curfew ↗ 2023-11-25 08:51
2023-11-25 08:51 CET
Additional Intermediate Pneus ↗ 2023-11-25 09:36
2023-11-25 09:36 CET
New PU elements for this Competition ↗ 2023-11-25 11:49
2023-11-25 11:49 CET
P3 Classification ↗ 2023-11-25 12:45
2023-11-25 12:45 CET
Provisional Qualifications Classification ↗ 2023-11-25 16:16
2023-11-25 16:16 CET
Summons - Car 10 - Alleged Impeding by Car 81 ↗ 10 Pierre Gasly 2023-11-25 16:21
10 Pierre Gasly 2023-11-25 16:21 CET
Qualifications Deleted Tour Times ↗ 2023-11-25 16:25
2023-11-25 16:25 CET
Decision - Qualifications SC2-SC1 Times ↗ 2023-11-25 16:31
2023-11-25 16:31 CET
Summons - Car 81 - Alleged Impeding of Car 10 ↗ 81 Oscar Piastri 2023-11-25 16:32
81 Oscar Piastri 2023-11-25 16:32 CET
Decision - Car 2 - Failing to set a lap time within 107% ↗ 2 Logan Sargeant 2023-11-25 17:10
2 Logan Sargeant 2023-11-25 17:10 CET
Decision - Car 81 - Alleged impeding of Car 10 ↗ 81 Oscar Piastri 2023-11-25 17:33
81 Oscar Piastri 2023-11-25 17:33 CET
P3 and Qualifications scrutineering ↗ 2023-11-25 18:26
2023-11-25 18:26 CET
Final Qualifications Classification ↗ 2023-11-25 18:30
2023-11-25 18:30 CET
Provisional Starting Grille ↗ 2023-11-25 18:35
2023-11-25 18:35 CET
Pre-Course Procedure ↗ 2023-11-26 07:21
2023-11-26 07:21 CET
Post-Course Procedure ↗ 2023-11-26 07:26
2023-11-26 07:26 CET
Parts and parameters been replaced and or changed during Parc Fermé ↗ 2023-11-26 11:55
2023-11-26 11:55 CET
Final Starting Grille ↗ 2023-11-26 12:01
2023-11-26 12:01 CET
Decision - Car 44 - Alleged causing a collision ↗ 44 Lewis Hamilton 2023-11-26 14:55
44 Lewis Hamilton 2023-11-26 14:55 CET
Provisional Course Classification ↗ 2023-11-26 15:55
2023-11-26 15:55 CET
Summons - All Team Managers - Eye Wear during Arrêts aux stands ↗ 2023-11-26 16:16
2023-11-26 16:16 CET
Infringement - Car 11 - Causing a collision ↗ 11 Sergio Pérez 2023-11-26 16:24
11 Sergio Pérez 2023-11-26 16:24 CET
Summons - Car 11 - Team Radio Communication ↗ 11 Sergio Pérez 2023-11-26 16:46
11 Sergio Pérez 2023-11-26 16:46 CET
Course scrutineering ↗ 2023-11-26 17:11
2023-11-26 17:11 CET
Decision - All Écuries - Eye Wear during Arrêts aux stands ↗ 2023-11-26 17:46
2023-11-26 17:46 CET
Course Deleted Tour Times ↗ 2023-11-26 18:28
2023-11-26 18:28 CET
Infringement - Car 11 - Team Radio Communication ↗ 11 Sergio Pérez 2023-11-26 18:29
11 Sergio Pérez 2023-11-26 18:29 CET
Final Course Classification ↗ 2023-11-26 18:45
2023-11-26 18:45 CET
Championnat Points ↗ 2023-11-26 18:50
2023-11-26 18:50 CET
FIA official decisions and documents (fia.com) · PDF original PDF links
Record Basis · Calculation basis
Course order is the final classification(post-race penalties applied) · les qualifications session data 2003+ · lap times 1996+ · pit stops 2012+ (pit-lane transit, not stationary time) · Abandon = Finished(Finished·+N Tours) non-Finished statuses
Sources des données: Jolpica-F1 (Ergast compatible API) · weather·Direction de course OpenF1 (2023+) · Last fetched: 2026-09-05 14:15